Time;durP1;ratioP1;P1;durP2;ratioP2;P2;SDS_P1;SDS_P2;PMS_P1;PMS_P2;Temp;Humidity;BMP_temperature;BMP_pressure;BME280_temperature;BME280_humidity;BME280_pressure;Samples;Min_cycle;Max_cycle;Signal;HPM_P1;HPM_P2
2022/09/01 00:02:09;;;;;;;10.57;2.75;;;15.00;99.90;;;;;;5042024;28;20033;-81
2022/09/01 00:04:38;;;;;;;14.35;3.13;;;15.10;99.90;;;;;;5055281;28;20477;-81
2022/09/01 00:07:06;;;;;;;9.05;3.55;;;15.10;99.90;;;;;;5049717;28;20029;-80
2022/09/01 00:09:35;;;;;;;11.65;3.22;;;15.10;99.90;;;;;;5047184;28;20453;-80
2022/09/01 00:12:03;;;;;;;7.35;2.45;;;15.10;99.90;;;;;;5030915;28;20025;-80
2022/09/01 00:14:35;;;;;;;7.20;3.63;;;15.10;99.90;;;;;;5050633;28;20025;-78
2022/09/01 00:17:06;;;;;;;9.05;3.53;;;15.10;99.90;;;;;;5052449;28;20049;-80
2022/09/01 00:19:34;;;;;;;6.65;3.28;;;15.10;99.90;;;;;;5034557;28;20021;-79
2022/09/01 00:22:03;;;;;;;8.18;4.10;;;15.10;99.90;;;;;;5051421;28;20028;-80
2022/09/01 00:24:31;;;;;;;10.25;3.80;;;15.10;99.90;;;;;;5051216;28;20028;-80
2022/09/01 00:26:58;;;;;;;6.63;3.78;;;15.10;99.90;;;;;;5051989;28;20025;-80
2022/09/01 00:29:26;;;;;;;6.00;3.38;;;15.10;99.90;;;;;;5052844;28;20503;-80
2022/09/01 00:31:54;;;;;;;7.82;4.00;;;15.10;99.90;;;;;;5052337;28;20045;-81
2022/09/01 00:34:22;;;;;;;7.28;4.20;;;15.20;99.90;;;;;;5053504;28;20378;-81
2022/09/01 00:36:49;;;;;;;7.53;4.20;;;15.20;99.90;;;;;;5053473;28;20024;-80
2022/09/01 00:39:17;;;;;;;7.60;3.88;;;15.20;99.90;;;;;;5050478;28;20033;-80
2022/09/01 00:41:46;;;;;;;8.68;4.47;;;15.20;99.90;;;;;;5053229;28;20032;-80
2022/09/01 00:44:17;;;;;;;11.65;5.05;;;15.30;99.90;;;;;;5052850;28;20428;-80
2022/09/01 00:46:51;;;;;;;9.63;5.28;;;15.40;99.90;;;;;;5054048;28;20079;-79
2022/09/01 00:49:35;;;;;;;10.25;4.40;;;15.50;99.90;;;;;;5048833;28;20026;-76
2022/09/01 00:52:16;;;;;;;10.75;4.93;;;15.50;99.90;;;;;;5051813;28;20025;-80
2022/09/01 00:54:51;;;;;;;12.93;5.35;;;15.60;99.90;;;;;;5051737;28;20057;-73
2022/09/01 00:57:19;;;;;;;9.60;5.03;;;15.70;99.90;;;;;;5048831;28;20028;-81
2022/09/01 01:00:11;;;;;;;12.15;5.03;;;15.70;99.90;;;;;;5034475;28;20052;-80
2022/09/01 01:02:41;;;;;;;10.73;5.20;;;15.80;99.90;;;;;;5049075;28;20021;-80
2022/09/01 01:05:09;;;;;;;14.23;5.97;;;15.80;99.90;;;;;;5051557;28;20040;-80
2022/09/01 01:07:40;;;;;;;12.65;5.30;;;15.80;99.90;;;;;;5048114;28;20104;-80
2022/09/01 01:10:10;;;;;;;11.38;6.10;;;15.70;99.90;;;;;;5053209;28;20075;-80
2022/09/01 01:12:42;;;;;;;9.02;5.95;;;15.70;99.90;;;;;;5050001;28;20051;-78
2022/09/01 01:15:11;;;;;;;7.15;5.38;;;15.70;99.90;;;;;;5040119;28;20026;-76
2022/09/01 01:17:39;;;;;;;10.52;6.38;;;15.70;99.90;;;;;;5038628;28;20045;-81
2022/09/01 01:23:05;;;;;;;12.43;5.95;;;15.80;99.90;;;;;;5047931;28;20059;-78
2022/09/01 01:25:34;;;;;;;12.27;6.18;;;15.80;99.90;;;;;;5054127;28;20032;-82
2022/09/01 01:28:12;;;;;;;10.20;6.10;;;15.90;99.90;;;;;;5052191;28;20023;-79
2022/09/01 01:30:43;;;;;;;10.82;6.10;;;15.90;99.90;;;;;;5036024;28;20408;-79
2022/09/01 01:33:11;;;;;;;8.05;5.22;;;15.90;99.90;;;;;;5054303;28;20029;-80
2022/09/01 01:35:40;;;;;;;9.80;5.72;;;15.90;99.90;;;;;;5054144;28;20048;-80
2022/09/01 01:38:07;;;;;;;12.15;6.03;;;16.00;99.90;;;;;;5053662;28;20075;-76
2022/09/01 01:40:37;;;;;;;12.07;6.43;;;16.10;99.90;;;;;;5043322;28;20449;-79
2022/09/01 01:43:10;;;;;;;10.82;5.63;;;16.10;99.90;;;;;;5044500;28;20078;-78
2022/09/01 01:45:38;;;;;;;13.13;5.32;;;16.20;99.90;;;;;;5044162;28;20021;-80
2022/09/01 01:48:07;;;;;;;13.82;5.32;;;16.20;99.90;;;;;;5042346;28;20466;-76
2022/09/01 01:50:36;;;;;;;6.65;5.32;;;16.30;99.90;;;;;;5051038;28;20031;-78
2022/09/01 01:53:07;;;;;;;9.18;4.82;;;16.30;99.90;;;;;;5054670;28;20024;-80
2022/09/01 01:55:35;;;;;;;10.70;5.10;;;16.40;99.90;;;;;;5054562;28;20394;-78
2022/09/01 01:58:04;;;;;;;8.73;4.72;;;16.40;99.90;;;;;;5053703;28;20025;-80
2022/09/01 02:00:33;;;;;;;8.13;5.38;;;16.50;99.90;;;;;;5053891;28;20445;-78
2022/09/01 02:03:01;;;;;;;7.88;4.30;;;16.50;99.90;;;;;;5053416;28;20025;-80
2022/09/01 02:05:32;;;;;;;11.25;4.97;;;16.50;99.90;;;;;;5053674;28;20024;-80
2022/09/01 02:08:06;;;;;;;9.45;4.70;;;16.50;99.90;;;;;;5053385;28;20021;-80
2022/09/01 02:10:39;;;;;;;6.60;4.03;;;16.60;99.90;;;;;;5053715;28;20021;-79
2022/09/01 02:13:10;;;;;;;9.30;3.72;;;16.60;99.90;;;;;;5053670;28;20085;-82
2022/09/01 02:15:45;;;;;;;11.57;4.95;;;16.60;99.90;;;;;;5053609;28;20017;-79
2022/09/01 02:18:40;;;;;;;8.32;4.35;;;16.80;99.90;;;;;;5052521;28;20044;-81
2022/09/01 02:21:10;;;;;;;9.35;4.53;;;16.90;99.90;;;;;;5050480;28;20432;-80
2022/09/01 02:23:39;;;;;;;6.47;3.55;;;17.00;99.90;;;;;;5053500;28;20025;-78
2022/09/01 02:26:10;;;;;;;7.55;3.78;;;17.10;99.90;;;;;;5053356;28;20033;-80
2022/09/01 02:28:41;;;;;;;6.05;3.38;;;17.10;99.90;;;;;;5035437;28;20029;-81
2022/09/01 02:31:10;;;;;;;5.95;3.22;;;17.20;99.90;;;;;;5053307;28;20452;-80
2022/09/01 02:33:39;;;;;;;5.72;3.25;;;17.20;99.90;;;;;;5052773;28;20029;-81
2022/09/01 02:36:12;;;;;;;9.23;3.63;;;17.30;99.90;;;;;;5052815;28;20071;-80
2022/09/01 02:38:43;;;;;;;10.93;3.60;;;17.30;99.90;;;;;;5051627;28;20086;-81
2022/09/01 02:41:13;;;;;;;5.32;3.40;;;17.30;99.90;;;;;;5053212;28;20025;-75
2022/09/01 02:43:45;;;;;;;8.93;2.47;;;17.30;99.90;;;;;;5053344;28;20067;-81
2022/09/01 02:46:14;;;;;;;6.20;2.80;;;17.30;99.90;;;;;;5053394;28;20027;-80
2022/09/01 02:48:44;;;;;;;9.23;3.03;;;17.40;99.90;;;;;;5053148;28;20017;-81
2022/09/01 02:51:18;;;;;;;6.80;2.50;;;17.40;99.90;;;;;;5052888;28;20033;-81
2022/09/01 02:53:51;;;;;;;14.88;2.83;;;17.50;99.90;;;;;;5049834;28;20029;-80
2022/09/01 02:56:26;;;;;;;5.43;2.85;;;17.50;99.90;;;;;;5053060;28;20028;-81
2022/09/01 02:58:54;;;;;;;7.63;2.47;;;17.60;99.90;;;;;;5053097;28;20025;-81
2022/09/01 03:01:27;;;;;;;10.35;3.40;;;17.60;99.90;;;;;;5052822;28;20025;-80
2022/09/01 03:03:58;;;;;;;10.27;2.90;;;17.70;99.90;;;;;;5053712;28;20087;-78
2022/09/01 03:06:27;;;;;;;7.45;2.22;;;17.80;99.90;;;;;;5053214;28;20453;-81
2022/09/01 03:08:58;;;;;;;3.95;1.98;;;17.80;99.90;;;;;;5051323;28;20025;-81
2022/09/01 03:11:28;;;;;;;6.25;2.25;;;17.80;99.90;;;;;;5051731;28;20060;-81
2022/09/01 03:13:56;;;;;;;5.57;1.77;;;17.90;99.90;;;;;;5053403;28;20029;-81
2022/09/01 03:16:30;;;;;;;4.82;1.80;;;17.80;99.90;;;;;;5052453;28;20057;-80
2022/09/01 03:18:58;;;;;;;7.38;1.80;;;17.80;99.90;;;;;;5052820;28;20049;-80
2022/09/01 03:21:26;;;;;;;4.85;1.83;;;17.90;99.90;;;;;;5052004;28;20314;-80
2022/09/01 03:23:57;;;;;;;4.72;2.25;;;17.90;99.90;;;;;;5041283;28;20031;-78
2022/09/01 03:26:25;;;;;;;4.38;1.95;;;17.90;99.90;;;;;;5040821;28;20056;-78
2022/09/01 03:28:52;;;;;;;4.75;1.75;;;18.00;99.90;;;;;;5039896;28;20124;-79
2022/09/01 03:31:21;;;;;;;11.82;1.85;;;18.00;99.90;;;;;;5048762;28;20021;-80
2022/09/01 03:33:49;;;;;;;4.68;1.48;;;18.00;99.90;;;;;;5056619;28;20079;-80
2022/09/01 03:36:20;;;;;;;4.15;1.40;;;18.00;99.90;;;;;;5038460;28;20075;-79
2022/09/01 03:38:52;;;;;;;7.68;1.75;;;18.00;99.90;;;;;;5056518;28;20017;-77
2022/09/01 03:41:23;;;;;;;4.00;1.45;;;18.10;99.90;;;;;;5055539;28;20432;-77
2022/09/01 03:43:56;;;;;;;6.00;1.25;;;18.20;99.90;;;;;;5056271;28;20470;-76
2022/09/01 03:46:25;;;;;;;6.28;1.50;;;18.20;99.90;;;;;;5054836;28;20037;-77
2022/09/01 03:48:57;;;;;;;2.53;1.00;;;18.20;99.90;;;;;;5047942;28;20014;-74
2022/09/01 03:51:25;;;;;;;5.50;1.30;;;18.10;99.90;;;;;;5046477;28;20021;-75
2022/09/01 03:53:55;;;;;;;4.50;1.40;;;18.10;99.90;;;;;;5026823;28;20047;-73
2022/09/01 03:56:26;;;;;;;3.13;1.65;;;18.20;99.90;;;;;;5042832;28;20021;-75
2022/09/01 03:58:55;;;;;;;3.90;1.42;;;18.20;99.90;;;;;;5042576;28;20018;-74
2022/09/01 04:01:24;;;;;;;7.00;1.50;;;18.30;99.90;;;;;;5044657;28;20033;-74
2022/09/01 04:03:52;;;;;;;6.93;1.60;;;18.40;99.90;;;;;;5044730;28;20034;-78
2022/09/01 04:06:22;;;;;;;4.55;1.58;;;18.40;99.90;;;;;;5038888;28;20691;-76
2022/09/01 04:08:56;;;;;;;4.63;1.40;;;18.50;99.90;;;;;;5046389;28;20029;-77
2022/09/01 04:11:25;;;;;;;5.93;1.45;;;18.60;99.90;;;;;;5045333;28;20021;-76
2022/09/01 04:13:53;;;;;;;4.80;1.48;;;18.50;99.90;;;;;;5039403;28;20150;-75
2022/09/01 04:19:19;;;;;;;4.82;1.55;;;18.50;99.90;;;;;;5044013;28;20090;-76
2022/09/01 04:21:55;;;;;;;4.18;1.63;;;18.50;99.90;;;;;;5039975;28;20029;-75
2022/09/01 04:24:26;;;;;;;4.60;1.95;;;18.50;99.90;;;;;;5050575;28;20021;-75
2022/09/01 04:26:57;;;;;;;3.63;1.45;;;18.60;99.90;;;;;;5040604;28;20036;-77
2022/09/01 04:29:28;;;;;;;4.95;2.13;;;18.60;99.90;;;;;;5042724;28;20043;-76
2022/09/01 04:32:01;;;;;;;6.38;2.15;;;18.60;99.90;;;;;;5049370;28;20106;-77
2022/09/01 04:34:35;;;;;;;8.07;2.88;;;18.80;99.90;;;;;;5037149;28;20134;-76
2022/09/01 04:37:16;;;;;;;6.67;2.97;;;18.80;99.90;;;;;;5045326;28;20029;-75
2022/09/01 04:39:51;;;;;;;10.05;2.85;;;18.80;99.90;;;;;;5046754;28;20021;-76
2022/09/01 04:42:22;;;;;;;4.30;2.20;;;18.80;99.90;;;;;;5037087;28;20113;-75
2022/09/01 04:44:55;;;;;;;6.45;2.45;;;18.70;99.90;;;;;;5046076;28;20018;-76
2022/09/01 04:47:29;;;;;;;7.65;2.72;;;18.70;99.90;;;;;;5033698;28;20064;-76
2022/09/01 04:49:59;;;;;;;8.75;2.45;;;18.70;99.90;;;;;;5033751;28;20035;-75
2022/09/01 04:52:27;;;;;;;9.27;2.70;;;18.70;99.90;;;;;;5031877;28;20136;-76
2022/09/01 04:54:55;;;;;;;7.90;2.88;;;18.60;99.90;;;;;;5040378;28;20487;-74
2022/09/01 04:57:30;;;;;;;10.85;2.65;;;18.60;99.90;;;;;;5042642;28;20018;-74
2022/09/01 04:59:58;;;;;;;6.72;2.30;;;18.60;99.90;;;;;;5048937;28;20037;-77
2022/09/01 05:02:27;;;;;;;9.32;2.38;;;18.50;99.90;;;;;;5036630;28;20135;-75
2022/09/01 05:04:57;;;;;;;5.75;2.25;;;18.50;99.90;;;;;;5046118;28;20432;-79
2022/09/01 05:07:26;;;;;;;10.13;2.58;;;18.50;99.90;;;;;;5039791;28;20020;-77
2022/09/01 05:09:55;;;;;;;6.72;2.70;;;18.40;99.90;;;;;;5042121;28;20112;-72
2022/09/01 05:12:23;;;;;;;9.57;2.75;;;18.40;99.90;;;;;;5040702;28;20060;-74
2022/09/01 05:14:51;;;;;;;5.05;1.83;;;18.40;99.90;;;;;;5039446;28;20025;-81
2022/09/01 05:17:20;;;;;;;5.78;2.22;;;18.30;99.90;;;;;;5042402;28;20053;-83
2022/09/01 05:19:50;;;;;;;9.68;1.90;;;18.20;99.90;;;;;;5047074;28;20037;-78
2022/09/01 05:22:20;;;;;;;8.63;2.45;;;18.20;99.90;;;;;;5036274;28;20478;-79
2022/09/01 05:24:50;;;;;;;10.82;2.95;;;18.20;99.90;;;;;;5046943;28;20095;-81
2022/09/01 05:27:18;;;;;;;5.43;2.97;;;18.20;99.90;;;;;;5042652;28;20020;-84
2022/09/01 05:29:46;;;;;;;14.82;2.72;;;18.10;99.90;;;;;;5038790;28;20072;-79
2022/09/01 05:32:14;;;;;;;11.02;2.53;;;18.00;99.90;;;;;;5049126;28;20644;-79
2022/09/01 05:34:44;;;;;;;4.60;1.33;;;17.90;99.90;;;;;;5037777;28;20508;-78
2022/09/01 05:37:13;;;;;;;7.35;2.22;;;17.90;99.90;;;;;;5043098;28;20041;-79
2022/09/01 05:39:43;;;;;;;8.57;2.22;;;17.80;99.90;;;;;;5045512;28;20024;-78
2022/09/01 05:42:11;;;;;;;13.10;2.47;;;17.60;99.90;;;;;;5036022;28;20032;-77
2022/09/01 05:44:43;;;;;;;10.40;2.30;;;17.60;99.90;;;;;;5047717;28;20014;-80
2022/09/01 05:47:15;;;;;;;9.73;2.58;;;17.60;99.90;;;;;;5041634;28;20025;-79
2022/09/01 05:49:43;;;;;;;9.13;2.55;;;17.60;99.90;;;;;;5045155;28;20485;-77
2022/09/01 05:52:11;;;;;;;7.07;2.60;;;17.60;99.90;;;;;;5039214;28;20036;-74
2022/09/01 05:54:40;;;;;;;6.90;2.08;;;17.50;99.90;;;;;;5038193;28;20010;-77
2022/09/01 05:57:07;;;;;;;9.35;2.13;;;17.50;99.90;;;;;;5040051;28;20155;-74
2022/09/01 05:59:36;;;;;;;8.38;2.42;;;17.50;99.90;;;;;;5038194;28;20021;-76
2022/09/01 06:02:07;;;;;;;6.60;2.17;;;17.50;99.90;;;;;;5043782;28;20021;-76
2022/09/01 06:04:39;;;;;;;14.75;2.75;;;17.50;99.90;;;;;;5040192;28;20047;-78
2022/09/01 06:07:08;;;;;;;4.88;2.15;;;17.40;99.90;;;;;;5042732;28;20418;-78
2022/09/01 06:09:47;;;;;;;5.32;1.55;;;17.40;99.90;;;;;;5040730;28;20044;-79
2022/09/01 06:12:20;;;;;;;7.13;1.75;;;17.40;99.90;;;;;;5041160;28;20071;-80
2022/09/01 06:14:55;;;;;;;8.23;2.00;;;17.30;99.90;;;;;;5039226;28;20402;-76
2022/09/01 06:17:25;;;;;;;8.83;1.70;;;17.40;99.90;;;;;;5030020;28;20079;-80
2022/09/01 06:19:55;;;;;;;13.05;3.58;;;17.30;99.90;;;;;;5042359;28;20030;-76
2022/09/01 06:22:24;;;;;;;6.35;1.90;;;17.30;99.90;;;;;;5031542;28;20024;-80
2022/09/01 06:24:53;;;;;;;4.93;1.40;;;17.30;99.90;;;;;;5039435;28;20024;-76
2022/09/01 06:27:21;;;;;;;10.90;1.92;;;17.20;99.90;;;;;;5041015;28;20029;-75
2022/09/01 06:29:52;;;;;;;5.18;2.08;;;17.20;99.90;;;;;;5046140;28;20021;-75
2022/09/01 06:32:20;;;;;;;8.15;2.05;;;17.20;99.90;;;;;;5035022;28;20037;-74
2022/09/01 06:34:49;;;;;;;8.27;2.03;;;17.10;99.90;;;;;;5046024;28;20474;-75
2022/09/01 06:37:21;;;;;;;5.45;2.10;;;17.00;99.90;;;;;;5041678;28;20363;-76
2022/09/01 06:39:49;;;;;;;10.95;2.40;;;17.00;99.90;;;;;;5037230;28;20116;-76
2022/09/01 06:42:18;;;;;;;10.73;2.25;;;16.90;99.90;;;;;;5047910;28;20025;-76
2022/09/01 06:44:46;;;;;;;9.60;2.10;;;16.90;99.90;;;;;;5037685;28;20532;-77
2022/09/01 06:47:14;;;;;;;6.53;2.20;;;16.80;99.90;;;;;;5044114;28;20034;-75
2022/09/01 06:49:42;;;;;;;11.38;1.92;;;16.80;99.90;;;;;;5045092;28;20100;-74
2022/09/01 06:52:10;;;;;;;8.48;2.00;;;16.80;99.90;;;;;;5035049;28;20482;-76
2022/09/01 06:54:42;;;;;;;8.95;2.10;;;16.70;99.90;;;;;;5047051;28;20474;-73
2022/09/01 06:57:10;;;;;;;6.10;1.52;;;16.70;99.90;;;;;;5040484;28;20029;-76
2022/09/01 06:59:37;;;;;;;8.38;1.77;;;16.60;99.90;;;;;;5038539;28;20490;-75
2022/09/01 07:02:07;;;;;;;8.68;2.83;;;16.60;99.90;;;;;;5048792;28;20060;-81
2022/09/01 07:04:41;;;;;;;11.70;2.20;;;16.50;99.90;;;;;;5038697;28;20048;-75
2022/09/01 07:07:13;;;;;;;10.75;1.80;;;16.50;99.90;;;;;;5046255;28;20374;-75
2022/09/01 07:09:41;;;;;;;6.43;1.70;;;16.40;99.90;;;;;;5048828;28;20112;-74
2022/09/01 07:12:09;;;;;;;5.38;1.55;;;16.30;99.90;;;;;;5039349;28;20029;-77
2022/09/01 07:14:37;;;;;;;11.93;2.28;;;16.30;99.90;;;;;;5054168;28;20053;-76
2022/09/01 07:17:06;;;;;;;8.90;1.92;;;16.30;99.90;;;;;;5054475;28;20048;-76
2022/09/01 07:19:34;;;;;;;7.22;2.05;;;16.20;99.90;;;;;;5033074;28;20435;-75
2022/09/01 07:22:02;;;;;;;6.72;2.50;;;16.20;99.90;;;;;;5035071;28;20116;-76
2022/09/01 07:24:29;;;;;;;5.05;1.77;;;16.10;99.90;;;;;;5032433;28;20082;-78
2022/09/01 07:26:57;;;;;;;8.32;1.85;;;16.10;99.90;;;;;;5051268;28;20043;-78
2022/09/01 07:29:25;;;;;;;6.80;1.58;;;16.00;99.90;;;;;;5053397;28;20032;-77
2022/09/01 07:31:54;;;;;;;5.18;1.75;;;16.00;99.90;;;;;;5055300;28;20477;-78
2022/09/01 07:34:22;;;;;;;6.80;1.73;;;16.00;99.90;;;;;;5056001;28;20017;-78
2022/09/01 07:36:58;;;;;;;10.50;2.88;;;15.90;99.90;;;;;;5055180;28;20028;-77
2022/09/01 07:39:26;;;;;;;12.95;2.42;;;15.80;99.90;;;;;;5051917;28;20057;-77
2022/09/01 07:41:54;;;;;;;5.47;1.88;;;15.80;99.90;;;;;;5051430;28;20118;-78
2022/09/01 07:44:22;;;;;;;8.60;1.98;;;15.70;99.90;;;;;;5051619;28;20020;-77
2022/09/01 07:46:50;;;;;;;15.13;2.80;;;15.70;99.90;;;;;;5052183;28;20163;-78
2022/09/01 07:49:18;;;;;;;7.10;2.17;;;15.60;99.90;;;;;;5053896;28;20049;-78
2022/09/01 07:51:50;;;;;;;7.15;2.20;;;15.60;99.90;;;;;;5053016;28;20486;-78
2022/09/01 07:54:18;;;;;;;8.85;2.75;;;15.50;99.90;;;;;;5052838;28;20075;-78
2022/09/01 07:56:46;;;;;;;13.25;2.03;;;15.50;99.90;;;;;;5048829;28;20021;-75
2022/09/01 07:59:13;;;;;;;11.32;2.38;;;15.50;99.90;;;;;;5052123;28;20498;-74
2022/09/01 08:01:41;;;;;;;15.90;2.38;;;15.40;99.90;;;;;;5052023;28;20083;-77
2022/09/01 08:04:09;;;;;;;10.90;1.85;;;15.40;99.90;;;;;;5050621;28;20143;-76
2022/09/01 08:06:37;;;;;;;8.88;2.40;;;15.40;99.90;;;;;;5053718;28;20024;-80
2022/09/01 08:09:09;;;;;;;15.10;2.20;;;15.40;99.90;;;;;;5053509;28;20474;-79
2022/09/01 08:11:37;;;;;;;18.50;3.53;;;15.30;99.90;;;;;;5052002;28;20051;-77
2022/09/01 08:14:05;;;;;;;11.77;3.13;;;15.30;99.90;;;;;;5045290;28;20021;-77
2022/09/01 08:16:33;;;;;;;9.93;2.38;;;15.30;99.90;;;;;;5052155;28;20099;-77
2022/09/01 08:19:00;;;;;;;11.20;1.85;;;15.20;99.90;;;;;;5052522;28;20048;-76
2022/09/01 08:21:28;;;;;;;12.55;1.77;;;15.20;99.90;;;;;;5051447;28;20036;-76
2022/09/01 08:23:56;;;;;;;8.35;1.40;;;15.20;99.90;;;;;;5051246;28;20391;-88
2022/09/01 08:26:25;;;;;;;14.55;2.10;;;15.20;99.90;;;;;;5051768;28;20055;-83
2022/09/01 08:28:55;;;;;;;7.30;2.15;;;15.10;99.90;;;;;;5053379;28;20043;-83
2022/09/01 08:31:24;;;;;;;12.25;2.65;;;15.10;99.90;;;;;;5054388;28;20075;-79
2022/09/01 08:33:52;;;;;;;7.10;1.95;;;15.10;99.90;;;;;;5054329;28;20061;-80
2022/09/01 08:36:21;;;;;;;13.23;2.75;;;15.10;99.90;;;;;;5054743;28;20017;-76
2022/09/01 08:38:49;;;;;;;9.90;2.15;;;15.00;99.90;;;;;;5054755;28;20138;-77
2022/09/01 08:41:47;;;;;;;12.30;2.97;;;15.00;99.90;;;;;;5054742;28;20029;-76
2022/09/01 08:44:51;;;;;;;12.05;1.95;;;14.90;99.90;;;;;;5054074;28;20104;-77
2022/09/01 08:47:19;;;;;;;13.25;2.55;;;14.90;99.90;;;;;;5051086;28;20055;-77
2022/09/01 08:49:49;;;;;;;11.05;2.35;;;14.90;99.90;;;;;;5050450;28;20060;-78
2022/09/01 08:52:38;;;;;;;11.35;1.92;;;14.80;99.90;;;;;;5049814;28;20108;-77
2022/09/01 08:55:16;;;;;;;11.85;2.63;;;14.80;99.90;;;;;;5054300;28;20025;-78
2022/09/01 08:57:46;;;;;;;4.38;1.60;;;14.80;99.90;;;;;;5036345;28;20032;-77
2022/09/01 09:00:21;;;;;;;7.80;2.30;;;14.80;99.90;;;;;;5054317;28;20067;-77
2022/09/01 09:03:15;;;;;;;6.82;1.73;;;14.70;99.90;;;;;;5054368;28;20025;-77
2022/09/01 09:06:03;;;;;;;13.95;2.20;;;14.70;99.90;;;;;;5041358;28;20017;-79
2022/09/01 09:08:42;;;;;;;9.68;2.15;;;14.70;99.90;;;;;;5054139;28;20029;-77
2022/09/01 09:11:49;;;;;;;7.07;1.85;;;14.70;99.90;;;;;;5054368;28;20025;-78
2022/09/01 09:14:29;;;;;;;9.45;2.30;;;14.70;99.90;;;;;;5039561;28;20037;-78
2022/09/01 09:16:57;;;;;;;9.07;2.58;;;14.70;99.90;;;;;;5053884;28;20052;-78
2022/09/01 09:19:58;;;;;;;8.75;2.72;;;14.60;99.90;;;;;;5053926;28;20021;-78
2022/09/01 09:22:25;;;;;;;10.35;2.92;;;14.60;99.90;;;;;;5038406;28;20045;-78
2022/09/01 09:25:03;;;;;;;15.80;2.67;;;14.60;99.90;;;;;;5053899;28;20057;-78
2022/09/01 09:27:46;;;;;;;12.10;2.38;;;14.60;99.90;;;;;;5053009;28;20413;-75
2022/09/01 09:30:18;;;;;;;15.18;2.15;;;14.60;99.90;;;;;;5052499;28;20347;-77
2022/09/01 09:33:04;;;;;;;6.25;1.70;;;14.50;99.90;;;;;;5052159;28;20033;-78
2022/09/01 09:35:42;;;;;;;;;;;14.60;99.90;;;;;;5052615;28;20060;-74
2022/09/01 09:38:27;;;;;;;12.90;2.42;;;14.60;99.90;;;;;;5051518;28;20411;-77
2022/09/01 09:41:13;;;;;;;7.35;2.10;;;14.60;99.90;;;;;;5050291;28;20117;-78
2022/09/01 09:43:57;;;;;;;9.30;2.20;;;14.60;99.90;;;;;;5052253;28;20024;-78
2022/09/01 09:46:37;;;;;;;12.15;2.42;;;14.60;99.90;;;;;;5053151;28;20017;-78
2022/09/01 09:49:09;;;;;;;8.43;1.92;;;14.60;99.90;;;;;;5048253;28;20500;-78
2022/09/01 09:51:40;;;;;;;5.50;1.60;;;14.50;99.90;;;;;;5050898;28;20094;-77
2022/09/01 09:54:30;;;;;;;8.90;2.30;;;14.50;99.90;;;;;;5049824;28;20036;-78
2022/09/01 09:57:10;;;;;;;10.40;2.55;;;14.60;99.90;;;;;;5051854;28;20377;-78
2022/09/01 10:00:15;;;;;;;12.05;2.35;;;14.60;99.90;;;;;;5050251;28;20099;-78
2022/09/01 10:02:45;;;;;;;17.45;2.05;;;14.60;99.90;;;;;;5052678;28;20396;-78
2022/09/01 10:05:34;;;;;;;9.63;2.20;;;14.60;99.90;;;;;;5050477;28;20017;-78
2022/09/01 10:08:36;;;;;;;10.57;2.05;;;14.50;99.90;;;;;;5049454;28;20527;-78
2022/09/01 10:11:05;;;;;;;9.63;2.33;;;14.50;99.90;;;;;;5049228;28;20017;-75
2022/09/01 10:13:35;;;;;;;4.13;1.33;;;14.40;99.90;;;;;;5049241;28;20021;-78
2022/09/01 10:16:07;;;;;;;7.80;1.67;;;14.40;99.90;;;;;;5049638;28;20112;-75
2022/09/01 10:18:43;;;;;;;8.93;2.47;;;14.30;99.90;;;;;;5049876;28;20080;-75
2022/09/01 10:21:25;;;;;;;7.95;2.20;;;14.30;99.90;;;;;;5050597;28;20064;-72
2022/09/01 10:23:53;;;;;;;8.98;2.03;;;14.20;99.90;;;;;;5051207;28;20024;-78
2022/09/01 10:26:35;;;;;;;5.70;2.53;;;14.20;99.90;;;;;;5048478;28;20417;-77
2022/09/01 10:29:36;;;;;;;10.32;1.98;;;14.20;99.90;;;;;;5049739;28;20397;-76
2022/09/01 10:32:09;;;;;;;4.05;1.45;;;14.20;99.90;;;;;;5049222;28;20096;-78
2022/09/01 10:34:38;;;;;;;10.00;2.38;;;14.10;99.90;;;;;;5051249;28;20017;-77
2022/09/01 10:37:10;;;;;;;8.00;2.15;;;14.10;99.90;;;;;;5048790;28;20114;-75
2022/09/01 10:40:16;;;;;;;13.80;1.95;;;14.10;99.90;;;;;;5049787;28;20478;-78
2022/09/01 10:42:46;;;;;;;10.45;2.03;;;14.10;99.90;;;;;;5010763;28;20501;-76
2022/09/01 10:45:32;;;;;;;5.28;2.05;;;14.10;99.90;;;;;;5029688;28;20048;-78
2022/09/01 10:48:18;;;;;;;;;;;14.10;99.90;;;;;;5048708;28;20101;-79
2022/09/01 10:50:47;;;;;;;9.18;2.03;;;14.10;99.90;;;;;;5027477;28;19909;-77
2022/09/01 10:53:33;;;;;;;9.20;2.47;;;14.10;99.90;;;;;;5050085;28;20017;-78
2022/09/01 10:56:09;;;;;;;14.38;2.58;;;14.00;99.90;;;;;;5049851;28;20020;-77
2022/09/01 10:58:47;;;;;;;8.40;2.05;;;14.10;99.90;;;;;;5047283;28;20033;-78
2022/09/01 11:01:15;;;;;;;11.65;2.63;;;14.00;99.90;;;;;;5041198;28;20053;-78
2022/09/01 11:03:55;;;;;;;10.15;1.98;;;14.00;99.90;;;;;;5046413;28;20033;-78
2022/09/01 11:07:01;;;;;;;11.07;2.40;;;14.00;99.90;;;;;;5038936;28;20070;-78
2022/09/01 11:09:34;;;;;;;10.75;1.73;;;13.90;99.90;;;;;;5014206;28;20041;-78
2022/09/01 11:12:15;;;;;;;8.48;2.03;;;13.90;99.90;;;;;;5037380;28;20024;-78
2022/09/01 11:14:51;;;;;;;9.32;2.10;;;13.90;99.90;;;;;;5042796;28;20027;-78
2022/09/01 11:17:38;;;;;;;8.10;2.28;;;13.80;99.90;;;;;;5047423;28;20049;-78
2022/09/01 11:20:35;;;;;;;10.02;1.95;;;13.80;99.90;;;;;;5033109;28;20038;-77
2022/09/01 11:23:23;;;;;;;15.75;2.35;;;13.80;99.90;;;;;;5051210;28;20482;-78
2022/09/01 11:25:51;;;;;;;6.13;1.95;;;13.80;99.90;;;;;;5034753;28;20036;-77
2022/09/01 11:28:30;;;;;;;13.55;2.05;;;13.70;99.90;;;;;;5045377;28;20022;-78
2022/09/01 11:31:07;;;;;;;11.50;2.38;;;13.70;99.90;;;;;;5051170;28;20043;-77
2022/09/01 11:33:53;;;;;;;8.20;2.15;;;13.70;99.90;;;;;;5049965;28;20021;-78
2022/09/01 11:36:29;;;;;;;8.57;2.20;;;13.60;99.90;;;;;;5050774;28;20028;-77
2022/09/01 11:39:09;;;;;;;7.38;1.58;;;13.60;99.90;;;;;;5045898;28;20475;-78
2022/09/01 11:42:00;;;;;;;4.63;1.52;;;13.60;99.90;;;;;;5042757;28;20079;-78
2022/09/01 11:44:37;;;;;;;5.55;1.48;;;13.60;99.90;;;;;;5050605;28;20102;-77
2022/09/01 11:47:28;;;;;;;10.40;3.03;;;13.60;99.90;;;;;;5036664;28;20014;-78
2022/09/01 11:50:16;;;;;;;10.57;2.67;;;13.50;99.90;;;;;;5039337;28;20033;-78
2022/09/01 11:52:53;;;;;;;11.10;3.92;;;13.50;99.90;;;;;;5031785;28;20029;-78
2022/09/01 11:55:51;;;;;;;14.77;5.45;;;13.50;99.90;;;;;;5050290;28;20096;-77
2022/09/01 11:58:29;;;;;;;12.35;3.20;;;13.50;99.90;;;;;;5037301;28;20040;-78
2022/09/01 12:01:18;;;;;;;14.77;3.15;;;13.50;99.90;;;;;;5041483;28;20139;-78
2022/09/01 12:03:48;;;;;;;6.10;1.52;;;13.50;99.90;;;;;;5022702;28;20479;-77
2022/09/01 12:06:28;;;;;;;6.18;1.40;;;13.50;99.90;;;;;;5041261;28;20155;-77
2022/09/01 12:08:59;;;;;;;7.32;2.03;;;13.50;99.90;;;;;;5045207;28;20272;-76
2022/09/01 12:11:32;;;;;;;7.72;1.83;;;13.50;99.90;;;;;;5051914;28;20025;-78
2022/09/01 12:14:03;;;;;;;14.23;3.05;;;13.50;99.90;;;;;;5040617;28;20017;-78
2022/09/01 12:16:36;;;;;;;12.35;2.13;;;13.50;99.90;;;;;;5039157;28;20502;-78
2022/09/01 12:19:05;;;;;;;9.98;2.15;;;13.50;99.90;;;;;;5044019;28;20026;-78
2022/09/01 12:21:42;;;;;;;8.00;1.92;;;13.50;99.90;;;;;;5048613;28;20029;-77
2022/09/01 12:24:22;;;;;;;9.27;1.90;;;13.50;99.90;;;;;;5035752;28;20029;-78
2022/09/01 12:26:57;;;;;;;6.90;1.45;;;13.50;99.90;;;;;;5035571;28;20017;-74
2022/09/01 12:29:26;;;;;;;7.82;1.85;;;13.40;99.90;;;;;;5053647;28;20024;-78
2022/09/01 12:31:54;;;;;;;6.18;1.67;;;13.50;99.90;;;;;;5053560;28;20017;-76
2022/09/01 12:34:38;;;;;;;8.32;1.88;;;13.40;99.90;;;;;;5053558;28;20096;-77
2022/09/01 12:37:06;;;;;;;11.20;6.15;;;13.40;99.90;;;;;;5053126;28;20024;-76
2022/09/01 12:39:44;;;;;;;12.13;5.55;;;13.40;99.90;;;;;;5053857;28;20504;-78
2022/09/01 12:42:30;;;;;;;16.17;6.65;;;13.40;99.90;;;;;;5053844;28;20037;-78
2022/09/01 12:45:03;;;;;;;9.02;4.55;;;13.40;99.90;;;;;;5053408;28;20374;-77
2022/09/01 12:47:46;;;;;;;9.27;4.13;;;13.40;99.90;;;;;;5053293;28;20017;-78
2022/09/01 12:50:14;;;;;;;9.68;2.97;;;13.40;99.90;;;;;;5051591;28;20401;-76
2022/09/01 12:52:49;;;;;;;7.55;2.05;;;13.40;99.90;;;;;;5053371;28;20074;-78
2022/09/01 12:55:25;;;;;;;8.55;1.92;;;13.40;99.90;;;;;;5053022;28;20474;-77
2022/09/01 12:57:56;;;;;;;8.60;2.15;;;13.30;99.90;;;;;;5048544;28;20116;-77
2022/09/01 13:00:54;;;;;;;5.22;1.63;;;13.30;99.90;;;;;;5052804;28;20033;-76
2022/09/01 13:03:22;;;;;;;8.80;2.72;;;13.30;99.90;;;;;;5044075;28;20508;-78
2022/09/01 13:05:56;;;;;;;10.02;2.40;;;13.30;99.90;;;;;;5051493;28;20159;-78
2022/09/01 13:08:29;;;;;;;10.02;1.90;;;13.30;99.90;;;;;;5053232;28;20040;-77
2022/09/01 13:11:07;;;;;;;9.85;1.73;;;13.20;99.90;;;;;;5052804;28;20025;-77
2022/09/01 13:13:35;;;;;;;5.85;1.65;;;13.20;99.90;;;;;;5052892;28;20051;-77
2022/09/01 13:16:11;;;;;;;9.70;2.10;;;13.20;99.90;;;;;;5052238;28;20049;-77
2022/09/01 13:18:40;;;;;;;6.43;1.92;;;13.20;99.90;;;;;;5052862;28;20036;-78
2022/09/01 13:21:08;;;;;;;8.38;2.42;;;13.10;99.90;;;;;;5052546;28;20078;-77